Time;durP1;ratioP1;P1;durP2;ratioP2;P2;SDS_P1;SDS_P2;PMS_P1;PMS_P2;Temp;Humidity;BMP_temperature;BMP_pressure;BME280_temperature;BME280_humidity;BME280_pressure;Samples;Min_cycle;Max_cycle;Signal;HPM_P1;HPM_P2
2022/02/28 00:02:03;;;;;;;13.25;5.75;;;;;;;-0.57;78.45;100960.17;1798957;79;20945;-70
2022/02/28 00:04:34;;;;;;;17.98;6.17;;;;;;;-0.47;78.51;100958.38;1797004;77;21029;-69
2022/02/28 00:07:00;;;;;;;11.35;5.70;;;;;;;-0.37;78.47;100970.13;1789689;79;21081;-71
2022/02/28 00:09:29;;;;;;;15.65;6.00;;;;;;;-0.29;78.36;100963.67;1810703;78;21415;-69
2022/02/28 00:11:56;;;;;;;13.70;5.33;;;;;;;-0.23;78.24;100953.33;1809546;78;21044;-70
2022/02/28 00:14:23;;;;;;;13.58;5.33;;;;;;;-0.15;78.12;100963.09;1795815;79;21040;-72
2022/02/28 00:16:52;;;;;;;13.98;6.00;;;;;;;-0.12;77.98;100958.63;1780732;79;20870;-73
2022/02/28 00:19:23;;;;;;;11.08;4.90;;;;;;;-0.06;77.98;100959.63;1780583;79;21012;-72
2022/02/28 00:21:51;;;;;;;12.75;5.72;;;;;;;-0.02;77.86;100964.41;1803902;78;21015;-71
2022/02/28 00:24:23;;;;;;;19.37;6.10;;;;;;;0.04;77.82;100962.73;1806277;77;20961;-72
2022/02/28 00:26:51;;;;;;;13.78;5.67;;;;;;;0.10;77.68;100956.98;1798170;79;21028;-71
2022/02/28 00:32:57;;;;;;;13.22;6.53;;;;;;;0.20;77.41;100960.08;1657576;85;21053;-71
2022/02/28 00:35:25;;;;;;;15.75;6.30;;;;;;;0.24;77.23;100963.16;1654033;85;21074;-72
2022/02/28 00:37:55;;;;;;;13.85;6.08;;;;;;;0.27;77.07;100956.48;1720245;79;20957;-71
2022/02/28 00:40:22;;;;;;;14.47;5.60;;;;;;;0.29;76.92;100956.57;1787579;78;20930;-72
2022/02/28 00:42:51;;;;;;;13.48;5.65;;;;;;;0.31;76.82;100959.06;1798329;78;21040;-71
2022/02/28 00:45:22;;;;;;;10.93;5.65;;;;;;;0.32;76.64;100952.09;1811451;78;21883;-72
2022/02/28 00:47:48;;;;;;;12.88;6.05;;;;;;;0.33;76.58;100954.27;1792906;78;21494;-72
2022/02/28 00:50:15;;;;;;;16.48;5.90;;;;;;;0.34;76.44;100958.11;1810654;78;20865;-71
2022/02/28 00:52:42;;;;;;;11.95;5.70;;;;;;;0.35;76.16;100961.66;1810707;78;21159;-72
2022/02/28 00:55:11;;;;;;;19.62;6.03;;;;;;;0.34;75.98;100957.30;1794774;77;21041;-72
2022/02/28 00:57:39;;;;;;;11.05;6.08;;;;;;;0.30;75.77;100958.77;1793840;78;21796;-71
2022/02/28 01:00:12;;;;;;;11.63;6.47;;;;;;;0.25;75.71;100967.55;1799421;78;21529;-69
2022/02/28 01:02:42;;;;;;;13.60;5.58;;;;;;;0.24;75.72;100964.00;1794440;78;21041;-70
2022/02/28 01:05:10;;;;;;;11.15;5.70;;;;;;;0.22;75.68;100969.34;1800493;78;21463;-71
2022/02/28 01:07:38;;;;;;;14.95;5.75;;;;;;;0.21;75.61;100970.38;1800706;79;21056;-72
2022/02/28 01:10:09;;;;;;;12.13;6.10;;;;;;;0.18;75.46;100968.10;1786668;78;21875;-71
2022/02/28 01:12:42;;;;;;;13.15;6.72;;;;;;;0.15;75.35;100970.73;1806318;79;20878;-72
2022/02/28 01:15:12;;;;;;;;;;;;;;;0.10;75.16;100966.47;1789958;79;21506;-71
2022/02/28 01:17:39;;;;;;;11.20;5.53;;;;;;;0.04;75.13;100967.31;1808236;78;20423;-69
2022/02/28 01:20:08;;;;;;;10.45;5.67;;;;;;;-0.02;75.13;100969.83;1807016;78;20909;-71
2022/02/28 01:22:39;;;;;;;11.03;5.10;;;;;;;-0.05;75.17;100966.73;1807466;79;21040;-72
2022/02/28 01:25:10;;;;;;;12.55;6.17;;;;;;;-0.10;75.16;100966.00;1801195;79;20925;-71
2022/02/28 01:27:42;;;;;;;15.80;5.90;;;;;;;-0.14;75.19;100966.94;1795484;79;21550;-72
2022/02/28 01:30:10;;;;;;;12.05;5.85;;;;;;;-0.18;75.11;100966.23;1785462;79;20921;-72
2022/02/28 01:32:39;;;;;;;13.58;6.40;;;;;;;-0.21;75.03;100968.02;1805264;78;20944;-71
2022/02/28 01:35:08;;;;;;;15.40;5.92;;;;;;;-0.26;75.09;100967.30;1808329;78;21542;-72
2022/02/28 01:37:38;;;;;;;16.30;6.22;;;;;;;-0.28;75.13;100969.39;1779286;79;21029;-72
2022/02/28 01:40:07;;;;;;;14.35;6.85;;;;;;;-0.31;75.20;100963.89;1786607;79;20925;-71
2022/02/28 01:42:34;;;;;;;16.27;6.45;;;;;;;-0.32;75.12;100965.42;1804493;78;20938;-71
2022/02/28 01:45:03;;;;;;;13.95;7.25;;;;;;;-0.34;75.04;100962.93;1812358;78;20870;-72
2022/02/28 01:47:36;;;;;;;11.60;6.80;;;;;;;-0.36;75.01;100970.45;1810652;78;21138;-72
2022/02/28 01:50:08;;;;;;;18.37;7.72;;;;;;;-0.40;74.88;100967.84;1810601;79;21541;-71
2022/02/28 01:52:35;;;;;;;14.20;7.17;;;;;;;-0.45;74.84;100973.06;1812405;79;20885;-69
2022/02/28 01:55:04;;;;;;;15.13;6.90;;;;;;;-0.51;74.78;100967.44;1799404;77;21517;-72
2022/02/28 01:57:35;;;;;;;18.57;7.12;;;;;;;-0.57;74.76;100966.09;1799269;78;20985;-69
2022/02/28 02:00:06;;;;;;;12.82;6.60;;;;;;;-0.66;74.86;100966.31;1802626;79;21540;-72
2022/02/28 02:02:35;;;;;;;14.63;6.25;;;;;;;-0.74;75.21;100972.79;1792257;79;21540;-72
2022/02/28 02:05:05;;;;;;;15.65;7.37;;;;;;;-0.80;75.21;100966.84;1810772;78;21040;-71
2022/02/28 02:07:32;;;;;;;11.00;6.05;;;;;;;-0.82;75.25;100968.10;1794332;79;20949;-72
2022/02/28 02:10:05;;;;;;;10.78;5.58;;;;;;;-0.88;75.34;100971.95;1800587;78;21025;-72
2022/02/28 02:12:34;;;;;;;10.58;5.58;;;;;;;-0.93;75.46;100969.03;1804361;78;21129;-70
2022/02/28 02:15:07;;;;;;;;;;;;;;;-0.96;75.48;100965.90;1803203;79;21057;-71
2022/02/28 02:17:36;;;;;;;13.55;6.35;;;;;;;-1.02;75.40;100965.69;1809792;78;20496;-70
2022/02/28 02:20:06;;;;;;;16.55;6.35;;;;;;;-1.09;75.59;100971.61;1805084;78;21055;-71
2022/02/28 02:22:33;;;;;;;16.65;7.33;;;;;;;-1.16;75.82;100977.55;1812075;78;20926;-69
2022/02/28 02:25:03;;;;;;;17.20;6.95;;;;;;;-1.23;76.02;100977.00;1809299;79;21027;-70
2022/02/28 02:27:30;;;;;;;10.80;6.17;;;;;;;-1.28;76.35;100978.12;1810115;78;21018;-70
2022/02/28 02:29:58;;;;;;;13.72;6.45;;;;;;;-1.32;76.57;100986.36;1806660;79;21791;-71
2022/02/28 02:32:25;;;;;;;19.00;7.28;;;;;;;-1.40;76.78;100986.01;1792301;78;21123;-70
2022/02/28 02:34:55;;;;;;;16.27;6.95;;;;;;;-1.48;77.09;100987.55;1804358;78;21123;-70
2022/02/28 02:44:46;;;;;;;16.25;6.25;;;;;;;-1.44;78.19;100990.17;1813595;78;20983;-72
2022/02/28 02:47:13;;;;;;;14.90;6.00;;;;;;;-1.42;78.34;100988.11;1804994;79;20992;-70
2022/02/28 02:49:46;;;;;;;9.30;5.10;;;;;;;-1.46;78.66;100982.78;1801975;78;21571;-72
2022/02/28 02:52:20;;;;;;;14.85;6.05;;;;;;;-1.45;78.85;100982.27;1806953;78;20877;-71
2022/02/28 02:54:49;;;;;;;12.55;5.22;;;;;;;-1.49;78.86;100978.63;1800989;78;20981;-71
2022/02/28 02:57:18;;;;;;;11.78;5.33;;;;;;;-1.55;79.06;100977.25;1794286;78;21489;-71
2022/02/28 02:59:49;;;;;;;14.15;4.92;;;;;;;-1.55;79.42;100975.91;1809973;78;21119;-70
2022/02/28 03:02:17;;;;;;;11.55;5.22;;;;;;;-1.53;79.51;100978.70;1779070;79;21502;-71
2022/02/28 03:04:46;;;;;;;13.13;5.28;;;;;;;-1.53;79.58;100982.76;1793788;79;21971;-70
2022/02/28 03:07:20;;;;;;;13.48;5.78;;;;;;;-1.52;79.70;100978.19;1784769;78;21445;-71
2022/02/28 03:09:48;;;;;;;13.75;5.25;;;;;;;-1.53;79.62;100979.21;1773993;79;21457;-69
2022/02/28 03:12:19;;;;;;;14.30;5.30;;;;;;;-1.59;79.73;100980.34;1796504;78;21036;-71
2022/02/28 03:14:51;;;;;;;11.00;5.00;;;;;;;-1.66;79.91;100990.31;1796238;79;20929;-72
2022/02/28 03:17:20;;;;;;;8.98;4.72;;;;;;;-1.68;80.24;100976.67;1802519;78;21497;-70
2022/02/28 03:19:49;;;;;;;11.97;5.87;;;;;;;-1.69;80.47;100974.51;1789392;79;21070;-69
2022/02/28 03:22:17;;;;;;;12.80;5.08;;;;;;;-1.71;80.46;100977.38;1805816;79;20997;-71
2022/02/28 03:24:45;;;;;;;12.15;4.42;;;;;;;-1.69;80.58;100977.72;1782712;79;20949;-70
2022/02/28 03:27:15;;;;;;;15.78;4.22;;;;;;;-1.71;80.58;100977.38;1804550;78;21145;-70
2022/02/28 03:29:43;;;;;;;8.60;4.47;;;;;;;-1.69;80.72;100979.07;1799322;79;21792;-72
2022/02/28 03:32:09;;;;;;;11.97;4.00;;;;;;;-1.68;80.68;100978.02;1792785;78;20985;-70
2022/02/28 03:34:44;;;;;;;9.80;4.42;;;;;;;-1.71;80.71;100972.52;1804673;78;20989;-69
2022/02/28 03:37:15;;;;;;;12.93;4.53;;;;;;;-1.74;80.69;100976.44;1810724;79;21443;-71
2022/02/28 03:39:43;;;;;;;9.10;4.60;;;;;;;-1.77;80.65;100972.80;1805488;79;20972;-70
2022/02/28 03:42:12;;;;;;;7.65;3.65;;;;;;;-1.82;80.70;100979.83;1804990;79;21025;-70
2022/02/28 03:44:40;;;;;;;9.50;4.42;;;;;;;-1.85;80.93;100978.38;1779144;79;21045;-71
2022/02/28 03:47:14;;;;;;;10.75;4.75;;;;;;;-1.87;81.02;100975.87;1777466;80;21075;-70
2022/02/28 03:50:03;;;;;;;9.30;4.15;;;;;;;-1.90;81.03;100978.98;1766638;80;21490;-69
2022/02/28 03:52:31;;;;;;;7.92;4.53;;;;;;;-1.98;81.16;100974.57;1732263;80;21479;-71
2022/02/28 03:55:06;;;;;;;8.95;4.08;;;;;;;-2.03;81.38;100977.58;1762046;79;21740;-71
2022/02/28 03:57:35;;;;;;;8.90;4.12;;;;;;;-2.06;81.48;100972.04;1745637;80;21143;-72
2022/02/28 04:00:07;;;;;;;10.88;4.83;;;;;;;-2.08;81.59;100978.99;1753268;80;21106;-72
2022/02/28 04:02:38;;;;;;;7.95;4.25;;;;;;;-2.09;81.68;100977.84;1768811;80;21012;-72
2022/02/28 04:05:06;;;;;;;10.60;4.78;;;;;;;-2.10;81.71;100974.84;1730545;80;20917;-72
2022/02/28 04:07:37;;;;;;;9.80;4.25;;;;;;;-2.15;81.78;100984.87;1777289;80;21139;-72
2022/02/28 04:10:05;;;;;;;9.53;3.87;;;;;;;-2.20;81.98;100988.17;1762209;80;21039;-71
2022/02/28 04:12:33;;;;;;;9.70;4.22;;;;;;;-2.23;82.16;100985.87;1770605;80;21561;-70
2022/02/28 04:15:07;;;;;;;11.00;4.05;;;;;;;-2.17;82.50;100987.47;1766883;80;20947;-71
2022/02/28 04:17:35;;;;;;;9.60;4.45;;;;;;;-2.16;82.37;100992.67;1806898;79;21387;-72
2022/02/28 04:20:08;;;;;;;9.83;4.25;;;;;;;-2.14;82.59;100991.95;1772883;79;21415;-71
2022/02/28 04:22:37;;;;;;;6.55;3.95;;;;;;;-2.06;82.82;100996.35;1793284;78;21089;-71
2022/02/28 04:25:08;;;;;;;11.30;4.70;;;;;;;-1.99;82.73;100997.73;1805412;77;21118;-70
2022/02/28 04:27:37;;;;;;;10.43;4.08;;;;;;;-1.95;82.63;100994.97;1804724;78;20958;-70
2022/02/28 04:30:10;;;;;;;10.75;4.33;;;;;;;-1.96;82.27;100998.17;1804379;78;20972;-71
2022/02/28 04:32:39;;;;;;;10.38;4.42;;;;;;;-2.01;82.00;101006.55;1812364;78;21620;-72
2022/02/28 04:35:11;;;;;;;7.40;4.03;;;;;;;-2.10;81.91;101014.02;1800212;78;21088;-71
2022/02/28 04:37:39;;;;;;;9.68;3.75;;;;;;;-2.17;82.05;101011.27;1793646;77;20890;-72
2022/02/28 04:40:10;;;;;;;8.30;4.15;;;;;;;-2.20;82.16;101019.23;1799123;79;21000;-70
2022/02/28 04:42:40;;;;;;;10.10;3.80;;;;;;;-2.22;82.17;101013.73;1812896;78;20972;-72
2022/02/28 04:45:12;;;;;;;8.85;4.08;;;;;;;-2.27;82.09;101016.19;1804781;77;21125;-72
2022/02/28 04:47:38;;;;;;;9.75;4.50;;;;;;;-2.28;82.23;101018.55;1783231;79;20974;-72
2022/02/28 04:50:21;;;;;;;10.45;3.83;;;;;;;-2.30;82.19;101019.29;1794548;79;20897;-72
2022/02/28 04:52:54;;;;;;;7.35;4.25;;;;;;;-2.35;82.16;101019.86;1792642;79;21518;-71
2022/02/28 04:55:22;;;;;;;10.68;4.25;;;;;;;-2.37;82.31;101025.99;1808910;79;21039;-71
2022/02/28 04:57:53;;;;;;;12.18;5.47;;;;;;;-2.39;82.33;101031.56;1805203;78;21087;-70
2022/02/28 05:00:22;;;;;;;17.77;5.77;;;;;;;-2.40;82.41;101031.25;1770565;79;21473;-72
2022/02/28 05:02:50;;;;;;;13.05;5.58;;;;;;;-2.36;82.70;101031.70;1811333;79;20988;-71
2022/02/28 05:05:21;;;;;;;17.32;5.65;;;;;;;-2.30;82.79;101032.25;1812513;77;21110;-71
2022/02/28 05:07:49;;;;;;;8.55;4.90;;;;;;;-2.24;82.80;101029.29;1811591;79;21083;-71
2022/02/28 05:10:22;;;;;;;9.25;5.03;;;;;;;-2.22;82.66;101034.80;1804873;78;21862;-71
2022/02/28 05:12:53;;;;;;;;;;;;;;;-2.18;82.67;101027.68;1803555;78;20932;-72
2022/02/28 05:15:20;;;;;;;8.88;4.62;;;;;;;-2.14;82.62;101039.74;1778316;79;20146;-70
2022/02/28 05:17:47;;;;;;;9.40;4.85;;;;;;;-2.12;82.50;101035.83;1801676;78;20949;-72
2022/02/28 05:20:13;;;;;;;11.12;5.17;;;;;;;-2.11;82.47;101032.08;1790343;78;21434;-70
2022/02/28 05:22:42;;;;;;;11.38;4.92;;;;;;;-2.12;82.37;101031.77;1812396;78;21021;-71
2022/02/28 05:25:11;;;;;;;8.78;4.90;;;;;;;-2.19;82.06;101037.64;1809298;78;21568;-70
2022/02/28 05:27:39;;;;;;;7.30;3.75;;;;;;;-2.29;82.11;101037.15;1812303;79;21019;-72
2022/02/28 05:30:06;;;;;;;10.88;4.97;;;;;;;-2.33;82.34;101043.45;1749614;79;21426;-70
2022/02/28 05:32:35;;;;;;;6.05;3.80;;;;;;;-2.37;82.42;101036.26;1806023;79;21079;-73
2022/02/28 05:35:13;;;;;;;6.62;4.03;;;;;;;-2.37;82.69;101040.84;1787623;78;21162;-71
2022/02/28 05:37:50;;;;;;;11.08;4.62;;;;;;;-2.36;82.80;101037.95;1800506;79;20941;-71
2022/02/28 05:40:16;;;;;;;11.88;4.28;;;;;;;-2.28;82.97;101044.20;1784344;79;21387;-72
2022/02/28 05:42:45;;;;;;;5.75;3.17;;;;;;;-2.27;82.74;101037.80;1814994;78;20996;-70
2022/02/28 05:45:12;;;;;;;7.45;4.25;;;;;;;-2.28;82.83;101044.20;1808326;79;21509;-72
2022/02/28 05:47:42;;;;;;;7.53;3.50;;;;;;;-2.19;83.18;101047.09;1811091;79;21134;-72
2022/02/28 05:50:11;;;;;;;8.18;3.70;;;;;;;-2.12;82.94;101053.89;1804591;78;20976;-71
2022/02/28 05:52:37;;;;;;;5.20;3.85;;;;;;;-2.12;82.60;101051.19;1800150;78;21422;-71
2022/02/28 05:55:08;;;;;;;10.43;4.53;;;;;;;-2.07;82.95;101051.44;1811216;78;20974;-72
2022/02/28 05:57:39;;;;;;;6.75;3.42;;;;;;;-1.96;83.02;101053.58;1808067;78;20929;-71
2022/02/28 06:00:09;;;;;;;7.75;3.55;;;;;;;-1.90;82.45;101052.46;1797908;79;20874;-70
2022/02/28 06:02:42;;;;;;;7.35;3.75;;;;;;;-1.86;82.30;101055.09;1789408;79;20985;-70
2022/02/28 06:05:11;;;;;;;9.15;3.42;;;;;;;-1.75;82.17;101052.33;1797418;79;21508;-71
2022/02/28 06:07:42;;;;;;;7.00;2.95;;;;;;;-1.68;81.71;101053.72;1806883;79;20985;-72
2022/02/28 06:10:11;;;;;;;4.90;2.27;;;;;;;-1.57;81.68;101053.16;1803391;77;21083;-71
2022/02/28 06:12:37;;;;;;;5.33;2.95;;;;;;;-1.52;79.75;101053.91;1790771;78;21061;-72
2022/02/28 06:15:06;;;;;;;5.28;2.60;;;;;;;-1.57;79.65;101057.22;1791964;78;20972;-72
2022/02/28 06:17:35;;;;;;;6.55;3.27;;;;;;;-1.53;78.96;101055.77;1802124;79;21466;-72
2022/02/28 06:20:11;;;;;;;6.90;2.58;;;;;;;-1.60;78.23;101054.89;1784621;79;20897;-70
2022/02/28 06:22:40;;;;;;;11.00;3.08;;;;;;;-1.67;78.08;101060.81;1792433;78;21032;-71
2022/02/28 06:25:08;;;;;;;6.80;2.60;;;;;;;-1.62;78.54;101060.50;1809576;77;21103;-71
2022/02/28 06:27:38;;;;;;;4.55;2.50;;;;;;;-1.53;78.22;101062.53;1793616;78;20947;-71
2022/02/28 06:30:08;;;;;;;5.03;2.37;;;;;;;-1.50;76.94;101067.53;1804844;79;20964;-70
2022/02/28 06:32:38;;;;;;;7.10;2.15;;;;;;;-1.51;76.88;101075.34;1802608;78;21117;-70
2022/02/28 06:35:09;;;;;;;6.25;2.40;;;;;;;-1.51;76.66;101075.34;1806756;79;20985;-71
2022/02/28 06:37:35;;;;;;;6.58;2.40;;;;;;;-1.43;76.62;101074.31;1799548;77;21457;-72
2022/02/28 06:43:24;;;;;;;5.67;2.27;;;;;;;-1.12;76.02;101070.78;1769162;78;21088;-72
2022/02/28 06:45:54;;;;;;;4.33;2.10;;;;;;;-0.94;75.29;101069.38;1787519;78;20989;-72
2022/02/28 06:48:22;;;;;;;5.78;2.85;;;;;;;-0.82;74.43;101076.38;1807286;78;20925;-71
2022/02/28 06:50:50;;;;;;;4.67;2.33;;;;;;;-0.75;73.76;101071.28;1798620;79;21110;-70
2022/02/28 06:53:23;;;;;;;3.37;2.15;;;;;;;-0.67;72.92;101072.13;1780557;77;20994;-70
2022/02/28 06:55:46;;;;;;;8.53;3.17;;;;;;;-0.62;72.20;101073.70;1780001;77;20973;-72
2022/02/28 06:58:15;;;;;;;3.42;2.33;;;;;;;-0.65;70.33;101069.52;1799866;79;21517;-71
2022/02/28 07:00:41;;;;;;;7.30;2.60;;;;;;;-0.68;70.10;101070.47;1792579;78;20968;-69
2022/02/28 07:03:15;;;;;;;4.10;2.20;;;;;;;-0.63;70.43;101080.98;1809151;78;20869;-71
2022/02/28 07:05:49;;;;;;;4.95;2.90;;;;;;;-0.56;69.58;101081.52;1803403;79;20981;-71
2022/02/28 07:08:11;;;;;;;5.53;2.85;;;;;;;-0.50;69.56;101080.69;1796485;77;20982;-70
2022/02/28 07:10:39;;;;;;;4.30;2.27;;;;;;;-0.46;69.50;101087.34;1811131;78;21075;-71
2022/02/28 07:13:08;;;;;;;4.30;3.00;;;;;;;-0.35;69.40;101082.34;1810198;79;20981;-69
2022/02/28 07:15:34;;;;;;;7.62;2.83;;;;;;;-0.27;68.83;101092.45;1782448;79;20997;-71
2022/02/28 07:18:02;;;;;;;7.00;2.60;;;;;;;-0.17;68.59;101084.44;1784722;78;21020;-71
2022/02/28 07:20:32;;;;;;;6.95;2.85;;;;;;;-0.12;67.15;101092.77;1757343;78;21048;-71
2022/02/28 07:23:04;;;;;;;5.95;2.98;;;;;;;-0.12;67.19;101084.65;1792744;79;20989;-72
2022/02/28 07:25:30;;;;;;;6.47;2.77;;;;;;;-0.03;67.45;101082.53;1803223;78;21032;-70
2022/02/28 07:27:58;;;;;;;5.28;3.42;;;;;;;0.02;66.67;101083.27;1807051;79;21158;-70
2022/02/28 07:30:27;;;;;;;7.17;3.40;;;;;;;0.06;66.28;101081.79;1793373;78;20938;-72
2022/02/28 07:32:55;;;;;;;5.90;2.80;;;;;;;0.15;66.12;101089.19;1800435;79;22059;-72
2022/02/28 07:35:23;;;;;;;4.78;3.00;;;;;;;0.17;64.49;101083.84;1787542;79;21495;-71
2022/02/28 07:37:51;;;;;;;8.63;3.10;;;;;;;0.16;64.96;101086.77;1797927;79;21036;-72
2022/02/28 07:40:17;;;;;;;4.10;2.17;;;;;;;0.20;64.94;101086.16;1798924;78;21522;-75
2022/02/28 07:42:47;;;;;;;8.15;3.12;;;;;;;0.26;63.97;101090.42;1794849;79;20882;-69
2022/02/28 07:45:16;;;;;;;8.38;2.83;;;;;;;0.23;63.77;101084.37;1794079;78;20976;-75
2022/02/28 07:47:43;;;;;;;7.95;2.50;;;;;;;0.25;64.00;101089.58;1801605;78;21002;-74
2022/02/28 07:50:21;;;;;;;5.35;2.70;;;;;;;0.32;63.52;101084.14;1811451;78;21522;-75
2022/02/28 07:52:51;;;;;;;7.28;2.58;;;;;;;0.28;62.74;101087.80;1806691;78;21069;-70
2022/02/28 07:55:19;;;;;;;8.50;2.80;;;;;;;0.31;63.06;101090.59;1782126;79;21557;-79
2022/02/28 07:57:46;;;;;;;4.62;2.62;;;;;;;0.32;62.39;101087.69;1799243;79;20965;-78
2022/02/28 08:00:17;;;;;;;8.23;3.02;;;;;;;0.30;61.89;101087.58;1805630;77;20977;-72
2022/02/28 08:02:45;;;;;;;6.00;2.95;;;;;;;0.28;62.74;101085.59;1803511;79;20983;-71
2022/02/28 08:05:15;;;;;;;7.12;2.60;;;;;;;0.42;62.60;101089.11;1804478;79;20921;-70
2022/02/28 08:07:43;;;;;;;4.33;2.62;;;;;;;0.47;61.10;101092.02;1797174;79;20973;-70
2022/02/28 08:10:13;;;;;;;6.25;2.50;;;;;;;0.46;61.29;101089.82;1793732;79;21008;-71
2022/02/28 08:12:40;;;;;;;6.05;2.80;;;;;;;0.55;61.61;101083.64;1787469;79;21074;-73
2022/02/28 08:15:09;;;;;;;6.40;3.00;;;;;;;0.69;61.33;101087.66;1787641;79;21557;-72
2022/02/28 08:17:37;;;;;;;5.15;2.67;;;;;;;0.78;60.12;101089.61;1795291;79;21572;-70
2022/02/28 08:20:06;;;;;;;8.38;3.20;;;;;;;0.83;60.57;101089.28;1798201;79;20827;-72
2022/02/28 08:22:38;;;;;;;4.80;2.17;;;;;;;0.93;60.35;101091.52;1800198;79;21500;-73
2022/02/28 08:25:06;;;;;;;4.85;2.27;;;;;;;1.04;59.21;101078.31;1811152;79;21425;-70
2022/02/28 08:27:34;;;;;;;5.62;2.70;;;;;;;1.06;59.69;101082.45;1790465;77;20932;-72
2022/02/28 08:30:04;;;;;;;4.45;2.67;;;;;;;1.19;59.77;101080.20;1800596;79;21209;-73
2022/02/28 08:32:33;;;;;;;4.40;2.30;;;;;;;1.33;59.65;101085.00;1796971;79;21015;-69
2022/02/28 08:35:03;;;;;;;4.90;2.67;;;;;;;1.48;59.13;101078.44;1810765;78;20933;-72
2022/02/28 08:37:30;;;;;;;7.65;2.77;;;;;;;1.56;58.49;101082.75;1794583;79;21000;-74
2022/02/28 08:39:59;;;;;;;5.28;2.20;;;;;;;1.61;58.44;101082.08;1804799;79;20996;-72
2022/02/28 08:42:25;;;;;;;7.20;2.08;;;;;;;1.70;58.28;101081.61;1809375;78;21533;-72
2022/02/28 08:44:55;;;;;;;3.35;2.50;;;;;;;1.82;58.18;101076.80;1790610;78;20965;-71
2022/02/28 08:47:22;;;;;;;6.10;2.60;;;;;;;1.89;57.17;101077.57;1798610;79;21524;-72
2022/02/28 08:49:52;;;;;;;5.87;3.02;;;;;;;1.86;56.26;101078.55;1809904;79;20975;-70
2022/02/28 08:52:19;;;;;;;6.70;2.90;;;;;;;1.88;57.04;101077.25;1798668;78;20926;-72
2022/02/28 08:54:46;;;;;;;5.12;2.35;;;;;;;2.01;56.64;101078.19;1800728;79;21506;-72
2022/02/28 08:57:14;;;;;;;7.65;2.62;;;;;;;2.11;56.42;101073.07;1810203;79;20973;-71
2022/02/28 08:59:41;;;;;;;5.67;2.85;;;;;;;2.22;56.13;101070.11;1793023;78;21073;-73
2022/02/28 09:02:07;;;;;;;4.25;2.30;;;;;;;2.32;56.20;101072.30;1793161;79;20981;-71
2022/02/28 09:04:51;;;;;;;6.05;3.35;;;;;;;2.41;55.44;101071.48;1810537;78;20933;-71
2022/02/28 09:07:21;;;;;;;11.53;2.80;;;;;;;2.45;55.07;101078.14;1793286;78;21135;-72
2022/02/28 09:09:49;;;;;;;4.08;2.10;;;;;;;2.47;53.90;101076.55;1810854;79;21467;-73
2022/02/28 09:12:19;;;;;;;5.12;2.80;;;;;;;2.46;54.65;101081.16;1804338;78;20988;-73
2022/02/28 09:14:45;;;;;;;5.45;2.50;;;;;;;2.61;54.94;101069.88;1785418;79;20989;-72
2022/02/28 09:17:18;;;;;;;10.93;2.85;;;;;;;2.77;54.55;101073.03;1797667;79;21494;-70
2022/02/28 09:19:46;;;;;;;5.00;2.47;;;;;;;2.91;54.49;101076.42;1785396;79;21114;-72
2022/02/28 09:22:12;;;;;;;4.35;2.52;;;;;;;3.00;53.42;101078.30;1805521;78;21174;-71
2022/02/28 09:24:38;;;;;;;5.60;2.42;;;;;;;3.08;53.27;101068.44;1805568;79;21016;-71
2022/02/28 09:27:07;;;;;;;5.28;2.80;;;;;;;3.22;52.62;101070.96;1801251;77;21064;-70
2022/02/28 09:29:57;;;;;;;12.00;4.40;;;;;;;3.24;51.09;101067.48;1801142;77;20933;-70
2022/02/28 09:32:23;;;;;;;15.58;4.08;;;;;;;2.97;50.91;101055.61;1786183;78;21127;-73
2022/02/28 09:34:51;;;;;;;10.53;3.10;;;;;;;2.73;52.05;101059.59;1771097;80;21068;-71
2022/02/28 09:37:19;;;;;;;4.40;2.30;;;;;;;2.80;52.75;101057.59;1766257;80;21501;-71
2022/02/28 09:39:45;;;;;;;5.50;2.47;;;;;;;2.98;52.55;101055.90;1737314;80;21414;-72
2022/02/28 09:42:31;;;;;;;10.93;4.90;;;;;;;3.14;52.17;101055.23;1787361;79;21497;-71
2022/02/28 09:45:18;;;;;;;7.10;2.80;;;;;;;3.17;50.73;101048.51;1783058;79;21590;-72
2022/02/28 09:48:02;;;;;;;6.42;3.08;;;;;;;3.19;51.63;101045.55;1789550;79;21036;-70
2022/02/28 09:50:31;;;;;;;7.35;3.15;;;;;;;3.34;50.66;101051.39;1809722;77;21544;-72
2022/02/28 09:53:16;;;;;;;10.03;3.95;;;;;;;3.33;49.47;101047.52;1804681;77;20971;-70
2022/02/28 09:56:02;;;;;;;11.70;4.72;;;;;;;3.18;50.02;101043.34;1801690;79;20960;-71
2022/02/28 09:58:47;;;;;;;8.70;3.77;;;;;;;3.06;49.83;101052.00;1789391;78;21157;-71
2022/02/28 10:01:16;;;;;;;6.05;3.00;;;;;;;3.00;50.35;101045.06;1795047;79;21526;-71
2022/02/28 10:03:44;;;;;;;13.83;2.95;;;;;;;3.03;50.87;101031.52;1804077;78;20941;-73
2022/02/28 10:06:14;;;;;;;6.37;3.20;;;;;;;3.14;50.75;101038.05;1805481;78;21588;-71
2022/02/28 10:08:45;;;;;;;10.93;4.50;;;;;;;3.22;50.64;101039.63;1812450;77;21031;-70
2022/02/28 10:11:42;;;;;;;5.70;3.17;;;;;;;3.22;49.57;101037.75;1792709;79;21166;-72
2022/02/28 10:14:11;;;;;;;6.97;3.35;;;;;;;3.10;50.05;101030.91;1783961;79;21024;-70
2022/02/28 10:17:00;;;;;;;7.05;3.05;;;;;;;2.95;49.84;101027.77;1799480;78;20974;-71
2022/02/28 10:19:33;;;;;;;5.87;3.45;;;;;;;2.73;50.53;101023.66;1805701;78;20984;-71
2022/02/28 10:22:09;;;;;;;6.72;3.12;;;;;;;2.75;51.26;101016.62;1793824;79;21017;-70
2022/02/28 10:24:38;;;;;;;7.08;2.83;;;;;;;2.89;51.40;101009.09;1783885;79;21422;-71
2022/02/28 10:27:26;;;;;;;6.35;3.02;;;;;;;3.09;51.45;101008.80;1796105;79;20862;-71
2022/02/28 10:29:57;;;;;;;8.68;2.92;;;;;;;3.34;51.22;101006.95;1811221;78;21409;-72
2022/02/28 10:32:53;;;;;;;5.95;2.95;;;;;;;3.41;48.71;101002.23;1794433;79;21485;-74
2022/02/28 10:36:01;;;;;;;6.50;2.90;;;;;;;3.25;49.84;101000.48;1806595;77;20996;-70
2022/02/28 10:38:55;;;;;;;6.65;2.90;;;;;;;3.22;49.27;101013.75;1791749;78;21059;-74
2022/02/28 10:41:28;;;;;;;6.45;3.12;;;;;;;3.17;49.56;101018.55;1799633;78;21469;-70
2022/02/28 10:43:59;;;;;;;9.68;3.42;;;;;;;3.20;49.86;101002.25;1805599;78;20961;-71
2022/02/28 10:46:29;;;;;;;6.60;3.70;;;;;;;3.34;50.20;101008.32;1811350;78;20942;-71
2022/02/28 10:49:15;;;;;;;4.62;2.77;;;;;;;3.51;49.48;101010.63;1805577;79;21091;-70
2022/02/28 10:51:53;;;;;;;6.60;3.27;;;;;;;3.69;49.84;100999.33;1799552;78;20990;-72
2022/02/28 10:54:35;;;;;;;5.80;2.52;;;;;;;3.91;48.45;101000.63;1787415;79;20934;-72
2022/02/28 10:57:26;;;;;;;4.53;2.62;;;;;;;4.03;48.90;100993.80;1806805;78;20991;-70
2022/02/28 10:59:55;;;;;;;4.53;2.12;;;;;;;4.18;48.90;100987.28;1807561;78;20967;-72
2022/02/28 11:02:36;;;;;;;6.40;2.60;;;;;;;4.30;47.74;100989.98;1810779;78;21529;-70
2022/02/28 11:05:15;;;;;;;3.45;2.55;;;;;;;4.26;47.05;100986.09;1804476;77;21090;-73
2022/02/28 11:07:53;;;;;;;4.97;2.70;;;;;;;4.18;47.45;100990.56;1812202;79;21462;-72
2022/02/28 11:10:20;;;;;;;5.28;2.30;;;;;;;4.11;47.42;100980.59;1784687;78;21067;-71
2022/02/28 11:12:49;;;;;;;4.15;2.12;;;;;;;4.12;47.77;100979.54;1804523;78;21048;-74
2022/02/28 11:15:32;;;;;;;5.92;2.60;;;;;;;4.26;47.34;100981.99;1804805;79;21029;-75
2022/02/28 11:18:00;;;;;;;3.25;1.82;;;;;;;4.18;46.25;100979.09;1784895;78;22103;-73
2022/02/28 11:20:31;;;;;;;3.00;1.80;;;;;;;4.03;45.83;100983.70;1799575;78;21107;-73
2022/02/28 11:22:58;;;;;;;5.22;2.30;;;;;;;3.85;45.58;100983.31;1803667;78;21067;-74
2022/02/28 11:25:26;;;;;;;5.33;2.20;;;;;;;3.77;46.73;100981.80;1803889;79;20989;-73
2022/02/28 11:27:55;;;;;;;4.10;1.77;;;;;;;3.92;47.53;100981.30;1769734;79;20900;-73
2022/02/28 11:30:24;;;;;;;2.20;1.50;;;;;;;4.15;46.92;100987.77;1799458;77;21107;-71
2022/02/28 11:33:05;;;;;;;3.33;1.65;;;;;;;4.23;45.93;100989.30;1793775;78;21065;-71
2022/02/28 11:35:49;;;;;;;3.22;1.80;;;;;;;4.23;45.49;100994.77;1812760;78;21013;-73
2022/02/28 11:38:27;;;;;;;2.33;1.37;;;;;;;4.30;46.02;100990.53;1810958;78;21033;-71
2022/02/28 11:40:54;;;;;;;2.75;1.82;;;;;;;4.42;45.45;100986.41;1796676;77;21031;-74
2022/02/28 11:43:26;;;;;;;7.08;1.67;;;;;;;4.45;45.28;100983.98;1807183;79;22066;-74
2022/02/28 11:46:10;;;;;;;4.12;1.50;;;;;;;4.58;45.36;100988.35;1803110;78;20934;-71
2022/02/28 11:48:51;;;;;;;4.03;1.72;;;;;;;4.66;44.85;100983.58;1803882;78;21064;-73
2022/02/28 11:51:33;;;;;;;4.25;1.80;;;;;;;4.59;44.66;100983.17;1799331;78;20997;-73
2022/02/28 11:54:28;;;;;;;2.62;1.60;;;;;;;4.61;44.53;100976.09;1783632;79;20973;-73
2022/02/28 11:56:55;;;;;;;4.28;1.60;;;;;;;4.66;44.49;100976.76;1798629;79;21020;-71
2022/02/28 11:59:30;;;;;;;3.90;1.80;;;;;;;4.71;45.02;100974.93;1809472;78;20942;-72